• Join FlightAware (Why Join?)
  • Login
  • US Flag 
11:33PM EDT


 

Airport Tracker/Info


-or-


 

Live Flight TrackerFlight Track Log ✈ AWE1160 ✈ 03-Aug-2012 ✈ KMIA - KPHL

Flight Track Log - Related Links

Times and Time Zones

All times are in EDT time to prevent confusion due to time zone crossing. See the AWE1160 flight status page for this flight to view local times or setup timezone preferences in your user account.

Time Position Orientation Groundspeed Altitude Reporting Facility
EDT Latitude Longitude Course Direction KTS MPH feet Rate Location/Type
07:32PM 25.7983 -80.2653 88° East 168 193 1,200  Level Miami Center
07:33PM 25.7992 -80.2306 79° East 179 206 2,200 2,220 Climbing Miami Center
07:34PM 25.8158 -80.1367 57° Northeast 224 258 5,700 2,460 Climbing Miami Center
07:35PM 25.8572 -80.0661 57° Northeast 238 274 8,200 2,400 Climbing Miami Center
07:36PM 25.9006 -79.9911 59° Northeast 263 303 10,500 2,100 Climbing Miami Center
07:37PM 25.9461 -79.9067 59° Northeast 319 367 12,400 2,220 Climbing Miami Center
07:38PM 25.9983 -79.8111 60° Northeast 347 399 15,000 2,640 Climbing Miami Center
07:39PM 26.0525 -79.7083 56° Northeast 370 426 17,700 2,400 Climbing Miami Center
07:40PM 26.1153 -79.6033 47° Northeast 385 443 19,900 2,280 Climbing Miami Center
07:41PM 26.1919 -79.5125 27° Northeast 392 451 22,300 2,280 Climbing Miami Center
07:42PM 26.3061 -79.4478 28° Northeast 401 461 24,500 1,800 Climbing Miami Center
07:43PM 26.4136 -79.3828 28° Northeast 423 487 26,000 1,500 Climbing Miami Center
07:44PM 26.5233 -79.3178 28° Northeast 439 505 27,600 1,260 Climbing Miami Center
07:45PM 26.6289 -79.2550 27° Northeast 453 521 28,600 1,320 Climbing Miami Center
07:46PM 26.7469 -79.1875 29° Northeast 460 529 30,300 1,740 Climbing Miami Center
07:47PM 26.8608 -79.1178 27° Northeast 460 529 32,100 1,500 Climbing Miami Center
07:48PM 26.9747 -79.0522 27° Northeast 455 524 33,400 1,260 Climbing Miami Center
07:49PM 27.1011 -78.9800 28° Northeast 455 524 34,700 1,200 Climbing Miami Center
07:50PM 27.2147 -78.9119 27° Northeast 455 524 35,900 1,140 Climbing Miami Center
07:51PM 27.3158 -78.8531 24° Northeast 449 517 37,000 540 Climbing Miami Center
07:52PM 27.4294 -78.7964 North 449 517 37,000  Level Miami Center
07:53PM 27.5633 -78.7778 North 443 510 37,000  Level Miami Center
07:54PM 27.6889 -78.7564 North 449 517 37,000  Level Miami Center
07:55PM 27.8122 -78.7394 North 449 517 37,000  Level Miami Center
07:56PM 27.9253 -78.7272 North 450 518 37,000  Level Miami Center
07:57PM 28.0528 -78.7106 North 444 511 37,000  Level Miami Center
07:58PM 28.1783 -78.6914 North 450 518 37,000  Level Miami Center
07:59PM 28.2975 -78.6744 North 443 510 37,000  Level Miami Center
08:00PM 28.4250 -78.6553 North 448 516 37,000  Level Miami Center
08:01PM 28.5400 -78.6358 North 440 506 37,000  Level Miami Center
08:02PM 28.6656 -78.6167 North 440 506 37,000  Level Miami Center
08:03PM 28.7911 -78.5994 North 446 513 37,000  Level Miami Center
08:04PM 28.9206 -78.5828 North 446 513 37,000  Level Miami Center
08:05PM 29.0397 -78.5631 North 446 513 37,000  Level Miami Center
08:06PM 29.1611 -78.5414 North 446 513 37,000  Level Miami Center
08:07PM 29.2864 -78.5217 North 445 512 37,000  Level Miami Center
08:08PM 29.4117 -78.5047 North 450 518 37,000  Level Miami Center
08:10PM 29.6344 -78.4656 North 444 511 37,000  Level Jacksonville Center
08:11PM 29.7611 -78.4500 North 444 511 37,000  Level Jacksonville Center
08:12PM 29.8836 -78.4300 North 449 517 37,000  Level Jacksonville Center
08:13PM 30.0103 -78.4122 13° North 449 517 37,000  Level Jacksonville Center
08:14PM 30.1344 -78.3778 17° North 454 522 37,000 -60 Level Jacksonville Center
08:15PM 30.2417 -78.3389 16° North 435 501 36,900  Descending Jacksonville Center
08:16PM 30.3631 -78.2972 17° North 434 499 37,000  Climbing Jacksonville Center
08:17PM 30.4847 -78.2550 17° North 439 505 37,000  Level Jacksonville Center
08:18PM 30.6064 -78.2131 15° North 457 526 37,000  Level Jacksonville Center
08:19PM 30.7322 -78.1731 18° North 441 507 37,000  Level Jacksonville Center
08:20PM 30.8536 -78.1283 16° North 436 502 37,000  Level Jacksonville Center
08:21PM 30.9775 -78.0856 11° North 449 517 37,000  Level Jacksonville Center
08:22PM 31.0994 -78.0575 16° North 508 585 37,000  Level Jacksonville Center
08:23PM 31.2211 -78.0172 18° North 471 542 37,000  Level Jacksonville Center
08:24PM 31.3444 -77.9694 13° North 453 521 37,000  Level Jacksonville Center
08:25PM 31.4664 -77.9364 19° North 453 521 37,000  Level Jacksonville Center
08:26PM 31.5875 -77.8883 19° North 448 516 37,000  Level Jacksonville Center
08:27PM 31.7089 -77.8403 15° North 448 516 37,000  Level Jacksonville Center
08:28PM 31.8325 -77.8019 16° North 453 521 37,000  Level Jacksonville Center
08:29PM 31.9542 -77.7608 17° North 453 521 37,000  Level Jacksonville Center
08:30PM 32.0753 -77.7172 18° North 453 521 37,000  Level Jacksonville Center
08:31PM 32.1967 -77.6711 15° North 453 521 37,000  Level Jacksonville Center
08:32PM 32.3203 -77.6322 18° North 453 521 37,000  Level Jacksonville Center
08:33PM 32.4414 -77.5858 16° North 448 516 37,000  Level Jacksonville Center
08:34PM 32.5589 -77.5469 18° North 448 516 37,000  Level Jacksonville Center
08:35PM 32.6739 -77.5031 16° North 443 510 37,000  Level Jacksonville Center
08:36PM 32.7950 -77.4614 17° North 443 510 37,000 -60 Level Jacksonville Center
08:37PM 32.9122 -77.4197 17° North 438 504 36,900  Descending Jacksonville Center
08:39PM 33.1139 -77.3469 17° North 444 511 37,000  Climbing Washington Center
08:40PM 33.2314 -77.3047 16° North 438 504 36,900  Descending Washington Center
08:41PM 33.3444 -77.2647 17° North 433 498 37,000  Climbing Washington Center
08:42PM 33.4597 -77.2222 16° North 433 498 37,000 -60 Level Washington Center
08:43PM 33.5731 -77.1819 17° North 427 491 36,900  Descending Washington Center
08:44PM 33.6861 -77.1392 17° North 421 484 37,000  Climbing Washington Center
08:45PM 33.7972 -77.0989 16° North 421 484 37,000  Level Washington Center
08:46PM 33.9125 -77.0583 17° North 421 484 37,000  Level Washington Center
08:47PM 34.0236 -77.0178 16° North 421 484 37,000  Level Washington Center
08:48PM 34.1344 -76.9794 18° North 416 479 37,000  Level Washington Center
08:49PM 34.2456 -76.9361 17° North 416 479 37,000  Level Washington Center
08:50PM 34.3567 -76.8953 16° North 411 473 37,000 -120 Level Washington Center
08:51PM 34.4656 -76.8567 17° North 411 473 36,800 -600 Descending Washington Center
08:52PM 34.5767 -76.8156 17° North 411 473 35,900 -960 Descending Washington Center
08:53PM 34.6856 -76.7742 16° North 411 473 34,900 -600 Descending Washington Center
08:54PM 34.7986 -76.7353 16° North 411 473 34,800 -600 Descending Washington Center
08:55PM 34.9136 -76.6939 18° North 411 473 33,800 -1,020 Descending Washington Center
08:56PM 35.0267 -76.6497 17° North 421 484 32,900 -420 Descending Washington Center
08:57PM 35.1356 -76.6081 17° North 431 496 33,000  Climbing Washington Center
08:58PM 35.2508 -76.5636 17° North 431 496 33,000  Level Washington Center
08:59PM 35.3553 -76.5242 17° North 436 502 33,000  Level Washington Center
09:00PM 35.4831 -76.4772 18° North 436 502 33,000  Level Washington Center
09:01PM 35.6003 -76.4300 17° North 436 502 33,000  Level Washington Center
09:02PM 35.7153 -76.3875 17° North 441 507 33,000  Level Washington Center
09:03PM 35.8344 -76.3428 17° North 441 507 33,000  Level Washington Center
09:04PM 35.9517 -76.2978 17° North 441 507 33,000 -180 Level Washington Center
09:05PM 36.0708 -76.2525 17° North 441 507 32,700 -720 Descending Washington Center
09:06PM 36.1900 -76.2072 17° North 441 507 31,600 -960 Descending Washington Center
09:09PM 36.5514 -76.0678 18° North 441 507 28,900 -660 Descending Washington Center
09:10PM 36.6747 -76.0167 18° North 447 514 29,000  Climbing Washington Center
09:11PM 36.8022 -75.9656 18° North 461 531 29,000  Level Washington Center
09:12PM 36.9297 -75.9142 16° North 471 542 29,000  Level Washington Center
09:13PM 37.0736 -75.8625 18° North 483 556 29,000 -60 Level Washington Center
09:14PM 37.1969 -75.8136 17° North 476 548 28,900 -660 Descending Washington Center
09:15PM 37.3242 -75.7642 21° North 476 548 27,700 -1,020 Descending Washington Center
09:16PM 37.4453 -75.7069 21° North 471 542 27,000 -360 Descending Washington Center
09:17PM 37.5683 -75.6469 23° Northeast 466 536 27,000  Level Washington Center
09:18PM 37.6850 -75.5839 20° North 461 531 27,000  Level Washington Center
09:19PM 37.8061 -75.5286 22° Northeast 461 531 27,000  Level Washington Center
09:20PM 37.9228 -75.4681 21° North 456 525 27,000 -660 Level Washington Center
09:21PM 38.0458 -75.4072 24° Northeast 456 525 25,700 -1,860 Descending Washington Center
09:22PM 38.1583 -75.3436 22° Northeast 450 518 23,400 -2,220 Descending Washington Center
09:23PM 38.2686 -75.2875 24° Northeast 436 502 21,200 -2,160 Descending Washington Center
09:24PM 38.3644 -75.2342 20° North 423 487 19,200 -2,100 Descending Washington Center
09:25PM 38.4686 -75.1858 18° North 411 473 17,100 -2,100 Descending Washington Center
09:26PM 38.5725 -75.1428 North 405 466 15,000 -1,140 Descending Washington Center
09:27PM 38.6789 -75.1264 North 390 449 14,900 -360 Descending Washington Center
09:28PM 38.7850 -75.1069 North 390 449 14,300 -900 Descending Washington Center
09:29PM 38.8892 -75.0903 North 385 443 13,200 -1,020 Descending Washington Center
09:30PM 38.9933 -75.0708 10° North 380 437 12,300 -960 Descending Washington Center
09:31PM 39.0933 -75.0486 North 374 430 11,300 -900 Descending Washington Center
09:31PM 39.1542 -75.0378 North 365 420 11,000 -600 Descending FAA TRACON SMA TRACON (SMA)
09:32PM 39.1847 -75.0325 North 363 418 10,800 -780 Descending FAA TRACON SMA TRACON (SMA)
09:32PM 39.2214 -75.0256 North 360 414 10,500 -780 Descending FAA TRACON SMA TRACON (SMA)
09:32PM 39.2508 -75.0200 North 341 392 10,300 -780 Descending FAA TRACON SMA TRACON (SMA)
09:33PM 39.2778 -75.0147 North 328 377 10,000 -780 Descending FAA TRACON SMA TRACON (SMA)
09:33PM 39.3103 -75.0094 North 309 356 9,800 -780 Descending FAA TRACON SMA TRACON (SMA)
09:33PM 39.3361 -75.0050 North 307 353 9,500 -1,200 Descending FAA TRACON SMA TRACON (SMA)
09:34PM 39.3672 -74.9994 North 305 351 9,000 -780 Descending FAA TRACON SMA TRACON (SMA)
09:34PM 39.3936 -74.9942 North 303 349 9,000 -600 Level FAA TRACON SMA TRACON (SMA)
09:34PM 39.4189 -74.9894 North 299 344 8,600 -1,380 Descending FAA TRACON SMA TRACON (SMA)
09:35PM 39.4439 -74.9847 North 297 342 8,100 -900 Descending FAA TRACON SMA TRACON (SMA)
09:35PM 39.4750 -74.9789 North 295 339 8,000 -600 Descending FAA TRACON SMA TRACON (SMA)
09:35PM 39.4994 -74.9750 340° North 290 334 7,700 -1,680 Descending FAA TRACON SMA TRACON (SMA)
09:36PM 39.5264 -74.9881 321° Northwest 297 342 6,900 -2,100 Descending FAA TRACON SMA TRACON (SMA)
09:36PM 39.5464 -75.0089 333° Northwest 301 346 6,300 -1,500 Descending FAA TRACON SMA TRACON (SMA)
09:36PM 39.5686 -75.0233 335° Northwest 289 333 5,900 -480 Descending FAA TRACON SMA TRACON (SMA)
09:37PM 39.5956 -75.0397 335° Northwest 283 326 6,000 120 Climbing FAA TRACON SMA TRACON (SMA)
09:37PM 39.6175 -75.0528 343° North 277 319 6,000  Level FAA TRACON SMA TRACON (SMA)
09:37PM 39.6408 -75.0619 336° Northwest 282 325 6,000  Level FAA TRACON SMA TRACON (SMA)
09:38PM 39.6631 -75.0750 337° Northwest 285 328 6,000  Level FAA TRACON SMA TRACON (SMA)
09:38PM 39.6903 -75.0903 336° Northwest 285 328 6,000  Level FAA TRACON SMA TRACON (SMA)
09:38PM 39.7136 -75.1036 350° North 286 329 6,000 -900 Level FAA TRACON SMA TRACON (SMA)
09:39PM 39.7369 -75.1092 26° Northeast 290 334 5,400 -1,500 Descending FAA TRACON SMA TRACON (SMA)
09:39PM 39.7633 -75.0922 47° Northeast 276 318 5,000 -780 Descending FAA TRACON SMA TRACON (SMA)
09:39PM 39.7781 -75.0714 48° Northeast 252 290 4,900 -180 Descending FAA TRACON SMA TRACON (SMA)
09:40PM 39.7947 -75.0469 48° Northeast 232 267 4,900 -480 Level FAA TRACON SMA TRACON (SMA)
09:40PM 39.8072 -75.0289 48° Northeast 222 255 4,600 -900 Descending FAA TRACON SMA TRACON (SMA)
09:40PM 39.8194 -75.0111 45° Northeast 215 247 4,300 -840 Descending FAA TRACON SMA TRACON (SMA)
09:41PM 39.8350 -74.9906 51° Northeast 211 243 4,000 -420 Descending FAA TRACON SMA TRACON (SMA)
09:41PM 39.8489 -74.9683 48° Northeast 205 236 4,000  Level FAA TRACON SMA TRACON (SMA)
09:41PM 39.8569 -74.9567 33° Northeast 202 232 4,000  Level FAA TRACON SMA TRACON (SMA)
09:42PM 39.8742 -74.9419 348° North 184 212 4,000  Level FAA TRACON SMA TRACON (SMA)
09:42PM 39.8900 -74.9464 311° West 190 219 4,000 -480 Level FAA TRACON SMA TRACON (SMA)
09:42PM 39.9000 -74.9614 279° West 181 208 3,700 -1,200 Descending FAA TRACON SMA TRACON (SMA)
09:43PM 39.9031 -74.9858 281° West 179 206 3,200 -1,200 Descending FAA TRACON SMA TRACON (SMA)
09:43PM 39.9058 -75.0053 278° West 179 206 2,900 -840 Descending FAA TRACON SMA TRACON (SMA)
09:43PM 39.9078 -75.0242 278° West 174 200 2,600 -840 Descending FAA TRACON SMA TRACON (SMA)